sensor_id;sensor_type;location;lat;lon;timestamp;pressure;altitude;pressure_sealevel;temperature;humidity
59789;BME280;47353;51.614;5.530;2022-08-19T00:00:21;101212.47;;;18.45;91.42
59789;BME280;47353;51.614;5.530;2022-08-19T00:02:46;101221.41;;;18.47;91.66
59789;BME280;47353;51.614;5.530;2022-08-19T00:05:13;101219.97;;;18.36;91.79
59789;BME280;47353;51.614;5.530;2022-08-19T00:07:41;101217.72;;;18.38;91.34
59789;BME280;47353;51.614;5.530;2022-08-19T00:10:09;101219.16;;;18.35;92.00
59789;BME280;47353;51.614;5.530;2022-08-19T00:12:34;101214.84;;;18.29;92.75
59789;BME280;47353;51.614;5.530;2022-08-19T00:15:01;101216.81;;;18.28;92.78
59789;BME280;47353;51.614;5.530;2022-08-19T00:17:26;101216.28;;;18.26;93.12
59789;BME280;47353;51.614;5.530;2022-08-19T00:19:52;101219.84;;;18.18;93.32
59789;BME280;47353;51.614;5.530;2022-08-19T00:22:17;101220.31;;;18.12;93.90
59789;BME280;47353;51.614;5.530;2022-08-19T00:24:45;101210.03;;;18.07;94.74
59789;BME280;47353;51.614;5.530;2022-08-19T00:27:12;101220.53;;;18.02;94.53
59789;BME280;47353;51.614;5.530;2022-08-19T00:29:37;101223.28;;;17.93;95.31
59789;BME280;47353;51.614;5.530;2022-08-19T00:32:03;101225.94;;;17.98;95.60
59789;BME280;47353;51.614;5.530;2022-08-19T00:34:29;101228.69;;;17.90;95.83
59789;BME280;47353;51.614;5.530;2022-08-19T00:36:56;101226.72;;;17.90;96.42
59789;BME280;47353;51.614;5.530;2022-08-19T00:39:21;101228.81;;;17.85;96.54
59789;BME280;47353;51.614;5.530;2022-08-19T00:41:48;101227.25;;;17.79;97.80
59789;BME280;47353;51.614;5.530;2022-08-19T00:44:23;101233.38;;;17.81;97.69
59789;BME280;47353;51.614;5.530;2022-08-19T00:46:51;101226.75;;;17.77;97.54
59789;BME280;47353;51.614;5.530;2022-08-19T00:49:24;101222.94;;;17.73;98.16
59789;BME280;47353;51.614;5.530;2022-08-19T00:51:54;101226.25;;;17.75;97.91
59789;BME280;47353;51.614;5.530;2022-08-19T00:54:21;101225.41;;;17.74;97.58
59789;BME280;47353;51.614;5.530;2022-08-19T00:56:48;101226.16;;;17.66;97.61
59789;BME280;47353;51.614;5.530;2022-08-19T00:59:15;101230.09;;;17.65;97.39
59789;BME280;47353;51.614;5.530;2022-08-19T01:01:43;101226.88;;;17.58;97.39
59789;BME280;47353;51.614;5.530;2022-08-19T01:04:09;101219.53;;;17.62;97.42
59789;BME280;47353;51.614;5.530;2022-08-19T01:06:39;101222.84;;;17.64;97.12
59789;BME280;47353;51.614;5.530;2022-08-19T01:09:06;101223.66;;;17.65;97.74
59789;BME280;47353;51.614;5.530;2022-08-19T01:11:35;101225.13;;;17.62;97.71
59789;BME280;47353;51.614;5.530;2022-08-19T01:14:02;101221.19;;;17.63;97.28
59789;BME280;47353;51.614;5.530;2022-08-19T01:16:29;101219.03;;;17.60;97.68
59789;BME280;47353;51.614;5.530;2022-08-19T01:18:55;101224.41;;;17.57;98.31
59789;BME280;47353;51.614;5.530;2022-08-19T01:21:31;101234.69;;;17.48;98.64
59789;BME280;47353;51.614;5.530;2022-08-19T01:23:58;101228.06;;;17.44;99.11
59789;BME280;47353;51.614;5.530;2022-08-19T01:26:25;101217.06;;;17.34;98.95
59789;BME280;47353;51.614;5.530;2022-08-19T01:28:54;101224.13;;;17.45;99.79
59789;BME280;47353;51.614;5.530;2022-08-19T01:31:24;101224.13;;;17.45;100.00
59789;BME280;47353;51.614;5.530;2022-08-19T01:33:52;101219.38;;;17.45;100.00
59789;BME280;47353;51.614;5.530;2022-08-19T01:36:28;101217.59;;;17.49;100.00
59789;BME280;47353;51.614;5.530;2022-08-19T01:38:54;101220.69;;;17.48;100.00
59789;BME280;47353;51.614;5.530;2022-08-19T01:41:20;101226.50;;;17.51;100.00
59789;BME280;47353;51.614;5.530;2022-08-19T01:43:46;101218.81;;;17.43;100.00
59789;BME280;47353;51.614;5.530;2022-08-19T01:46:11;101220.78;;;17.43;100.00
59789;BME280;47353;51.614;5.530;2022-08-19T01:48:40;101221.53;;;17.48;100.00
59789;BME280;47353;51.614;5.530;2022-08-19T01:51:07;101228.88;;;17.44;100.00
59789;BME280;47353;51.614;5.530;2022-08-19T01:53:33;101220.47;;;17.44;100.00
59789;BME280;47353;51.614;5.530;2022-08-19T01:55:59;101223.88;;;17.41;100.00
59789;BME280;47353;51.614;5.530;2022-08-19T01:58:34;101236.47;;;17.44;100.00
59789;BME280;47353;51.614;5.530;2022-08-19T02:01:04;101230.94;;;17.39;100.00
59789;BME280;47353;51.614;5.530;2022-08-19T02:03:29;101234.69;;;17.34;100.00
59789;BME280;47353;51.614;5.530;2022-08-19T02:05:57;101235.63;;;17.30;100.00
59789;BME280;47353;51.614;5.530;2022-08-19T02:08:25;101239.75;;;17.32;100.00
59789;BME280;47353;51.614;5.530;2022-08-19T02:10:51;101240.28;;;17.34;100.00
59789;BME280;47353;51.614;5.530;2022-08-19T02:13:17;101243.38;;;17.33;100.00
59789;BME280;47353;51.614;5.530;2022-08-19T02:15:42;101240.47;;;17.24;100.00
59789;BME280;47353;51.614;5.530;2022-08-19T02:18:08;101251.38;;;17.26;100.00
59789;BME280;47353;51.614;5.530;2022-08-19T02:20:34;101248.69;;;17.21;100.00
59789;BME280;47353;51.614;5.530;2022-08-19T02:23:00;101244.22;;;17.20;100.00
59789;BME280;47353;51.614;5.530;2022-08-19T02:25:26;101248.06;;;17.10;100.00
59789;BME280;47353;51.614;5.530;2022-08-19T02:27:52;101236.34;;;17.08;100.00
59789;BME280;47353;51.614;5.530;2022-08-19T02:30:18;101242.88;;;17.04;100.00
59789;BME280;47353;51.614;5.530;2022-08-19T02:32:44;101247.63;;;17.03;100.00
59789;BME280;47353;51.614;5.530;2022-08-19T02:35:10;101252.50;;;16.98;100.00
59789;BME280;47353;51.614;5.530;2022-08-19T02:37:36;101250.03;;;16.96;100.00
59789;BME280;47353;51.614;5.530;2022-08-19T02:40:20;101251.03;;;16.87;100.00
59789;BME280;47353;51.614;5.530;2022-08-19T02:42:46;101248.25;;;16.87;100.00
59789;BME280;47353;51.614;5.530;2022-08-19T02:45:13;101249.28;;;16.91;100.00
59789;BME280;47353;51.614;5.530;2022-08-19T02:47:39;101259.75;;;16.99;100.00
59789;BME280;47353;51.614;5.530;2022-08-19T02:50:05;101259.22;;;16.97;100.00
59789;BME280;47353;51.614;5.530;2022-08-19T02:52:33;101263.38;;;16.99;100.00
59789;BME280;47353;51.614;5.530;2022-08-19T02:54:59;101259.66;;;16.90;100.00
59789;BME280;47353;51.614;5.530;2022-08-19T02:57:25;101265.25;;;16.90;100.00
59789;BME280;47353;51.614;5.530;2022-08-19T02:59:51;101264.94;;;16.92;100.00
59789;BME280;47353;51.614;5.530;2022-08-19T03:02:16;101259.97;;;16.89;100.00
59789;BME280;47353;51.614;5.530;2022-08-19T03:04:42;101264.94;;;16.92;100.00
59789;BME280;47353;51.614;5.530;2022-08-19T03:07:08;101260.78;;;16.89;100.00
59789;BME280;47353;51.614;5.530;2022-08-19T03:09:36;101252.47;;;16.84;100.00
59789;BME280;47353;51.614;5.530;2022-08-19T03:12:03;101253.22;;;16.76;100.00
59789;BME280;47353;51.614;5.530;2022-08-19T03:14:33;101251.34;;;16.72;100.00
59789;BME280;47353;51.614;5.530;2022-08-19T03:16:59;101259.72;;;16.72;100.00
59789;BME280;47353;51.614;5.530;2022-08-19T03:19:24;101252.75;;;16.69;100.00
59789;BME280;47353;51.614;5.530;2022-08-19T03:21:51;101257.84;;;16.67;100.00
59789;BME280;47353;51.614;5.530;2022-08-19T03:24:18;101263.22;;;16.63;100.00
59789;BME280;47353;51.614;5.530;2022-08-19T03:26:46;101264.06;;;16.64;100.00
59789;BME280;47353;51.614;5.530;2022-08-19T03:29:13;101258.97;;;16.66;100.00
59789;BME280;47353;51.614;5.530;2022-08-19T03:31:41;101254.31;;;16.61;100.00
59789;BME280;47353;51.614;5.530;2022-08-19T03:34:08;101262.78;;;16.56;100.00
59789;BME280;47353;51.614;5.530;2022-08-19T03:36:35;101266.72;;;16.55;100.00
59789;BME280;47353;51.614;5.530;2022-08-19T03:39:00;101266.19;;;16.53;100.00
59789;BME280;47353;51.614;5.530;2022-08-19T03:41:29;101264.75;;;16.56;100.00
59789;BME280;47353;51.614;5.530;2022-08-19T03:43:55;101261.19;;;16.50;100.00
59789;BME280;47353;51.614;5.530;2022-08-19T03:46:27;101248.72;;;16.43;100.00
59789;BME280;47353;51.614;5.530;2022-08-19T03:48:55;101249.03;;;16.41;100.00
59789;BME280;47353;51.614;5.530;2022-08-19T03:51:23;101249.03;;;16.41;100.00
59789;BME280;47353;51.614;5.530;2022-08-19T03:53:51;101256.09;;;16.39;100.00
59789;BME280;47353;51.614;5.530;2022-08-19T03:56:17;101261.75;;;16.34;100.00
59789;BME280;47353;51.614;5.530;2022-08-19T03:58:43;101249.97;;;16.37;100.00
59789;BME280;47353;51.614;5.530;2022-08-19T04:01:17;101242.50;;;16.32;100.00
59789;BME280;47353;51.614;5.530;2022-08-19T04:03:44;101250.88;;;16.32;100.00
59789;BME280;47353;51.614;5.530;2022-08-19T04:06:22;101256.78;;;16.31;100.00
59789;BME280;47353;51.614;5.530;2022-08-19T04:08:49;101263.63;;;16.38;100.00
59789;BME280;47353;51.614;5.530;2022-08-19T04:11:18;101263.63;;;16.38;100.00
59789;BME280;47353;51.614;5.530;2022-08-19T04:13:45;101257.00;;;16.34;100.00
59789;BME280;47353;51.614;5.530;2022-08-19T04:16:11;101260.19;;;16.28;100.00
59789;BME280;47353;51.614;5.530;2022-08-19T04:18:39;101258.00;;;16.25;100.00
59789;BME280;47353;51.614;5.530;2022-08-19T04:21:06;101245.00;;;16.15;100.00
59789;BME280;47353;51.614;5.530;2022-08-19T04:23:32;101256.50;;;16.14;100.00
59789;BME280;47353;51.614;5.530;2022-08-19T04:25:58;101250.97;;;16.09;100.00
59789;BME280;47353;51.614;5.530;2022-08-19T04:28:24;101249.94;;;16.05;100.00
59789;BME280;47353;51.614;5.530;2022-08-19T04:30:52;101246.84;;;16.06;100.00
59789;BME280;47353;51.614;5.530;2022-08-19T04:33:22;101254.38;;;16.06;100.00
59789;BME280;47353;51.614;5.530;2022-08-19T04:35:50;101248.78;;;16.06;100.00
59789;BME280;47353;51.614;5.530;2022-08-19T04:38:19;101247.44;;;16.03;100.00
59789;BME280;47353;51.614;5.530;2022-08-19T04:40:50;101243.22;;;16.06;100.00
59789;BME280;47353;51.614;5.530;2022-08-19T04:43:39;101236.28;;;16.03;100.00
59789;BME280;47353;51.614;5.530;2022-08-19T04:46:09;101247.44;;;16.03;100.00
59789;BME280;47353;51.614;5.530;2022-08-19T04:48:36;101237.13;;;16.04;100.00
59789;BME280;47353;51.614;5.530;2022-08-19T04:51:06;101242.47;;;16.00;100.00
59789;BME280;47353;51.614;5.530;2022-08-19T04:53:34;101251.84;;;15.91;100.00
59789;BME280;47353;51.614;5.530;2022-08-19T04:56:05;101250.91;;;15.95;100.00
59789;BME280;47353;51.614;5.530;2022-08-19T04:58:32;101257.94;;;15.93;100.00
59789;BME280;47353;51.614;5.530;2022-08-19T05:00:57;101259.91;;;15.92;100.00
59789;BME280;47353;51.614;5.530;2022-08-19T05:03:25;101264.94;;;15.90;100.00
59789;BME280;47353;51.614;5.530;2022-08-19T05:05:51;101266.94;;;15.90;100.00
59789;BME280;47353;51.614;5.530;2022-08-19T05:08:21;101268.81;;;15.94;100.00
59789;BME280;47353;51.614;5.530;2022-08-19T05:10:48;101267.44;;;15.92;100.00
59789;BME280;47353;51.614;5.530;2022-08-19T05:13:15;101275.38;;;16.03;100.00
59789;BME280;47353;51.614;5.530;2022-08-19T05:15:42;101285.16;;;16.01;100.00
59789;BME280;47353;51.614;5.530;2022-08-19T05:18:08;101282.91;;;16.03;100.00
59789;BME280;47353;51.614;5.530;2022-08-19T05:20:52;101281.81;;;16.04;100.00
59789;BME280;47353;51.614;5.530;2022-08-19T05:23:36;101286.25;;;16.05;100.00
59789;BME280;47353;51.614;5.530;2022-08-19T05:26:01;101285.63;;;16.08;100.00
59789;BME280;47353;51.614;5.530;2022-08-19T05:28:26;101289.78;;;16.10;100.00
59789;BME280;47353;51.614;5.530;2022-08-19T05:30:53;101288.56;;;16.16;100.00
59789;BME280;47353;51.614;5.530;2022-08-19T05:33:20;101296.88;;;16.21;100.00
59789;BME280;47353;51.614;5.530;2022-08-19T05:35:46;101311.00;;;16.30;100.00
59789;BME280;47353;51.614;5.530;2022-08-19T05:38:13;101308.63;;;16.37;100.00
59789;BME280;47353;51.614;5.530;2022-08-19T05:40:39;101303.28;;;16.40;100.00
59789;BME280;47353;51.614;5.530;2022-08-19T05:43:06;101315.25;;;16.41;100.00
59789;BME280;47353;51.614;5.530;2022-08-19T05:45:32;101307.41;;;16.61;100.00
59789;BME280;47353;51.614;5.530;2022-08-19T05:47:58;101308.41;;;16.52;100.00
59789;BME280;47353;51.614;5.530;2022-08-19T05:50:24;101308.50;;;16.47;100.00
59789;BME280;47353;51.614;5.530;2022-08-19T05:52:51;101306.84;;;16.46;100.00
59789;BME280;47353;51.614;5.530;2022-08-19T05:55:17;101304.88;;;16.46;100.00
59789;BME280;47353;51.614;5.530;2022-08-19T05:57:46;101302.63;;;16.48;100.00
59789;BME280;47353;51.614;5.530;2022-08-19T06:00:12;101313.69;;;16.53;100.00
59789;BME280;47353;51.614;5.530;2022-08-19T06:02:38;101302.44;;;16.58;100.00
59789;BME280;47353;51.614;5.530;2022-08-19T06:05:04;101306.25;;;16.62;100.00
59789;BME280;47353;51.614;5.530;2022-08-19T06:07:32;101300.28;;;16.69;100.00
59789;BME280;47353;51.614;5.530;2022-08-19T06:09:57;101290.16;;;16.73;100.00
59789;BME280;47353;51.614;5.530;2022-08-19T06:12:23;101295.47;;;16.88;100.00
59789;BME280;47353;51.614;5.530;2022-08-19T06:14:54;101289.88;;;16.88;100.00
59789;BME280;47353;51.614;5.530;2022-08-19T06:17:20;101293.22;;;16.90;100.00
59789;BME280;47353;51.614;5.530;2022-08-19T06:19:47;101291.53;;;17.03;100.00
59789;BME280;47353;51.614;5.530;2022-08-19T06:22:15;101287.31;;;17.05;100.00
59789;BME280;47353;51.614;5.530;2022-08-19T06:24:41;101295.31;;;17.12;100.00
59789;BME280;47353;51.614;5.530;2022-08-19T06:27:07;101299.97;;;17.16;100.00
59789;BME280;47353;51.614;5.530;2022-08-19T06:29:33;101296.66;;;17.41;100.00
59789;BME280;47353;51.614;5.530;2022-08-19T06:32:00;101303.31;;;17.59;100.00
59789;BME280;47353;51.614;5.530;2022-08-19T06:34:28;101306.22;;;17.67;98.55
59789;BME280;47353;51.614;5.530;2022-08-19T06:36:54;101296.13;;;17.80;99.05
59789;BME280;47353;51.614;5.530;2022-08-19T06:39:26;101290.69;;;18.10;97.67
59789;BME280;47353;51.614;5.530;2022-08-19T06:41:55;101293.59;;;18.27;95.23
59789;BME280;47353;51.614;5.530;2022-08-19T06:44:23;101295.56;;;18.41;94.56
59789;BME280;47353;51.614;5.530;2022-08-19T06:46:51;101291.19;;;18.35;93.61
59789;BME280;47353;51.614;5.530;2022-08-19T06:49:17;101295.88;;;18.39;93.57
59789;BME280;47353;51.614;5.530;2022-08-19T06:51:47;101304.16;;;18.44;92.79
59789;BME280;47353;51.614;5.530;2022-08-19T06:54:14;101306.78;;;18.41;92.67
59789;BME280;47353;51.614;5.530;2022-08-19T06:56:40;101298.13;;;18.51;93.94
59789;BME280;47353;51.614;5.530;2022-08-19T06:59:09;101308.50;;;18.72;92.56
59789;BME280;47353;51.614;5.530;2022-08-19T07:01:40;101304.44;;;18.87;92.00
59789;BME280;47353;51.614;5.530;2022-08-19T07:04:08;101300.00;;;19.16;91.05
59789;BME280;47353;51.614;5.530;2022-08-19T07:06:34;101303.44;;;19.44;89.60
59789;BME280;47353;51.614;5.530;2022-08-19T07:09:01;101303.78;;;19.51;87.49
59789;BME280;47353;51.614;5.530;2022-08-19T07:11:26;101306.50;;;19.64;86.95
59789;BME280;47353;51.614;5.530;2022-08-19T07:13:52;101303.75;;;19.81;86.29
59789;BME280;47353;51.614;5.530;2022-08-19T07:16:19;101312.19;;;19.99;85.70
59789;BME280;47353;51.614;5.530;2022-08-19T07:18:46;101319.47;;;20.08;84.38
59789;BME280;47353;51.614;5.530;2022-08-19T07:21:15;101317.22;;;20.19;83.48
59789;BME280;47353;51.614;5.530;2022-08-19T07:23:41;101324.00;;;20.26;83.18
59789;BME280;47353;51.614;5.530;2022-08-19T07:26:13;101330.44;;;20.18;83.03
59789;BME280;47353;51.614;5.530;2022-08-19T07:28:40;101329.22;;;20.11;83.75
59789;BME280;47353;51.614;5.530;2022-08-19T07:31:07;101333.22;;;20.27;83.08
59789;BME280;47353;51.614;5.530;2022-08-19T07:33:33;101328.47;;;20.36;82.65
59789;BME280;47353;51.614;5.530;2022-08-19T07:36:01;101329.59;;;20.35;82.36
59789;BME280;47353;51.614;5.530;2022-08-19T07:38:26;101326.13;;;20.21;82.45
59789;BME280;47353;51.614;5.530;2022-08-19T07:40:51;101323.66;;;20.28;82.56
59789;BME280;47353;51.614;5.530;2022-08-19T07:43:17;101332.44;;;20.60;82.79
59789;BME280;47353;51.614;5.530;2022-08-19T07:45:51;101330.44;;;20.69;81.11
59789;BME280;47353;51.614;5.530;2022-08-19T07:48:18;101334.69;;;20.84;79.21
59789;BME280;47353;51.614;5.530;2022-08-19T07:50:43;101345.91;;;21.26;77.90
59789;BME280;47353;51.614;5.530;2022-08-19T07:53:09;101351.72;;;21.21;78.42
59789;BME280;47353;51.614;5.530;2022-08-19T07:55:34;101349.78;;;20.62;79.22
59789;BME280;47353;51.614;5.530;2022-08-19T07:57:59;101353.56;;;20.92;80.03
59789;BME280;47353;51.614;5.530;2022-08-19T08:00:26;101355.06;;;20.98;78.91
59789;BME280;47353;51.614;5.530;2022-08-19T08:02:52;101356.75;;;20.82;78.93
59789;BME280;47353;51.614;5.530;2022-08-19T08:05:18;101356.75;;;20.65;79.45
59789;BME280;47353;51.614;5.530;2022-08-19T08:08:02;101353.59;;;20.83;80.57
59789;BME280;47353;51.614;5.530;2022-08-19T08:10:46;101356.69;;;21.24;77.76
59789;BME280;47353;51.614;5.530;2022-08-19T08:13:11;101363.53;;;21.53;77.49
59789;BME280;47353;51.614;5.530;2022-08-19T08:15:38;101357.13;;;21.35;76.64
59789;BME280;47353;51.614;5.530;2022-08-19T08:18:04;101365.16;;;21.16;77.63
59789;BME280;47353;51.614;5.530;2022-08-19T08:20:29;101367.13;;;21.15;78.42
59789;BME280;47353;51.614;5.530;2022-08-19T08:22:55;101363.31;;;20.94;79.48
59789;BME280;47353;51.614;5.530;2022-08-19T08:25:38;101368.66;;;21.04;78.39
59789;BME280;47353;51.614;5.530;2022-08-19T08:28:04;101377.25;;;20.65;78.88
59789;BME280;47353;51.614;5.530;2022-08-19T08:30:30;101378.59;;;20.51;80.77
59789;BME280;47353;51.614;5.530;2022-08-19T08:32:57;101369.66;;;20.57;80.98
59789;BME280;47353;51.614;5.530;2022-08-19T08:35:23;101380.38;;;20.47;80.30
59789;BME280;47353;51.614;5.530;2022-08-19T08:37:52;101375.59;;;20.30;82.01
59789;BME280;47353;51.614;5.530;2022-08-19T08:40:28;101386.69;;;20.35;81.21
59789;BME280;47353;51.614;5.530;2022-08-19T08:43:07;101387.19;;;20.37;81.61
59789;BME280;47353;51.614;5.530;2022-08-19T08:45:38;101395.31;;;20.64;80.38
59789;BME280;47353;51.614;5.530;2022-08-19T08:48:18;101389.00;;;21.10;80.04
59789;BME280;47353;51.614;5.530;2022-08-19T08:50:47;101395.72;;;21.34;78.54
59789;BME280;47353;51.614;5.530;2022-08-19T08:53:17;101399.06;;;21.28;77.18
59789;BME280;47353;51.614;5.530;2022-08-19T08:55:42;101400.91;;;21.07;78.29
59789;BME280;47353;51.614;5.530;2022-08-19T08:58:14;101396.63;;;21.09;78.34
59789;BME280;47353;51.614;5.530;2022-08-19T09:00:47;101404.16;;;21.34;76.89
59789;BME280;47353;51.614;5.530;2022-08-19T09:03:20;101397.56;;;21.39;76.17
59789;BME280;47353;51.614;5.530;2022-08-19T09:06:04;101400.25;;;21.10;77.14
59789;BME280;47353;51.614;5.530;2022-08-19T09:08:45;101397.63;;;20.88;77.86
59789;BME280;47353;51.614;5.530;2022-08-19T09:12:04;101390.28;;;21.29;77.43
59789;BME280;47353;51.614;5.530;2022-08-19T09:16:41;101388.63;;;22.62;70.95
59789;BME280;47353;51.614;5.530;2022-08-19T09:19:08;101388.63;;;23.15;70.36
59789;BME280;47353;51.614;5.530;2022-08-19T09:21:33;101382.69;;;23.73;66.86
59789;BME280;47353;51.614;5.530;2022-08-19T09:24:00;101388.66;;;23.60;66.63
59789;BME280;47353;51.614;5.530;2022-08-19T09:26:26;101401.25;;;23.50;66.58
59789;BME280;47353;51.614;5.530;2022-08-19T09:28:53;101394.41;;;23.39;67.57
59789;BME280;47353;51.614;5.530;2022-08-19T09:31:24;101406.53;;;23.19;67.94
59789;BME280;47353;51.614;5.530;2022-08-19T09:33:51;101397.09;;;23.15;67.93
59789;BME280;47353;51.614;5.530;2022-08-19T09:36:20;101405.97;;;22.93;68.54
59789;BME280;47353;51.614;5.530;2022-08-19T09:38:47;101404.19;;;22.68;72.78
59789;BME280;47353;51.614;5.530;2022-08-19T09:41:18;101405.78;;;21.99;71.99
59789;BME280;47353;51.614;5.530;2022-08-19T09:43:47;101412.81;;;21.84;74.12
59789;BME280;47353;51.614;5.530;2022-08-19T09:46:13;101407.91;;;21.64;74.68
59789;BME280;47353;51.614;5.530;2022-08-19T09:48:41;101410.50;;;21.23;75.21
59789;BME280;47353;51.614;5.530;2022-08-19T09:51:08;101408.91;;;21.05;76.63
59789;BME280;47353;51.614;5.530;2022-08-19T09:53:34;101412.69;;;21.09;76.63
59789;BME280;47353;51.614;5.530;2022-08-19T09:56:00;101416.78;;;21.28;76.17
59789;BME280;47353;51.614;5.530;2022-08-19T09:58:26;101414.72;;;21.55;75.67
59789;BME280;47353;51.614;5.530;2022-08-19T10:00:57;101414.59;;;21.51;74.80
59789;BME280;47353;51.614;5.530;2022-08-19T10:03:23;101424.22;;;21.33;74.46
59789;BME280;47353;51.614;5.530;2022-08-19T10:05:49;101425.75;;;21.22;75.74
59789;BME280;47353;51.614;5.530;2022-08-19T10:08:17;101419.22;;;21.56;76.03
59789;BME280;47353;51.614;5.530;2022-08-19T10:10:43;101426.75;;;21.72;73.76
59789;BME280;47353;51.614;5.530;2022-08-19T10:13:09;101418.78;;;21.83;73.06
59789;BME280;47353;51.614;5.530;2022-08-19T10:15:35;101419.03;;;22.07;72.98
59789;BME280;47353;51.614;5.530;2022-08-19T10:18:00;101402.53;;;22.17;72.28
59789;BME280;47353;51.614;5.530;2022-08-19T10:20:26;101412.00;;;23.69;68.61
59789;BME280;47353;51.614;5.530;2022-08-19T10:22:51;101405.69;;;24.32;64.07
59789;BME280;47353;51.614;5.530;2022-08-19T10:25:17;101405.84;;;24.63;62.68
59789;BME280;47353;51.614;5.530;2022-08-19T10:27:42;101407.31;;;25.24;61.14
59789;BME280;47353;51.614;5.530;2022-08-19T10:30:08;101410.28;;;25.16;59.64
59789;BME280;47353;51.614;5.530;2022-08-19T10:32:34;101406.94;;;25.53;60.15
59789;BME280;47353;51.614;5.530;2022-08-19T10:35:00;101417.59;;;26.19;56.93
59789;BME280;47353;51.614;5.530;2022-08-19T10:37:26;101415.25;;;25.77;58.13
59789;BME280;47353;51.614;5.530;2022-08-19T10:39:51;101414.19;;;25.11;58.76
59789;BME280;47353;51.614;5.530;2022-08-19T10:42:17;101411.25;;;24.16;61.41
59789;BME280;47353;51.614;5.530;2022-08-19T10:44:44;101413.63;;;23.46;63.86
59789;BME280;47353;51.614;5.530;2022-08-19T10:47:10;101409.84;;;22.88;66.35
59789;BME280;47353;51.614;5.530;2022-08-19T10:49:36;101408.16;;;22.87;67.50
59789;BME280;47353;51.614;5.530;2022-08-19T10:52:24;101411.28;;;22.94;67.30
59789;BME280;47353;51.614;5.530;2022-08-19T10:55:08;101413.84;;;23.20;68.45
59789;BME280;47353;51.614;5.530;2022-08-19T10:57:52;101413.50;;;23.22;66.78
59789;BME280;47353;51.614;5.530;2022-08-19T11:00:19;101404.78;;;23.15;65.92
59789;BME280;47353;51.614;5.530;2022-08-19T11:02:45;101412.44;;;22.93;66.08
59789;BME280;47353;51.614;5.530;2022-08-19T11:05:11;101399.59;;;22.84;67.10
59789;BME280;47353;51.614;5.530;2022-08-19T11:07:41;101395.72;;;22.68;67.86
59789;BME280;47353;51.614;5.530;2022-08-19T11:10:08;101397.72;;;22.88;67.18
59789;BME280;47353;51.614;5.530;2022-08-19T11:12:36;101390.47;;;22.99;66.19
59789;BME280;47353;51.614;5.530;2022-08-19T11:15:03;101395.69;;;23.21;65.61
59789;BME280;47353;51.614;5.530;2022-08-19T11:17:29;101400.75;;;23.16;65.68
59789;BME280;47353;51.614;5.530;2022-08-19T11:19:56;101385.09;;;23.18;66.67
59789;BME280;47353;51.614;5.530;2022-08-19T11:22:22;101395.19;;;23.40;65.78
59789;BME280;47353;51.614;5.530;2022-08-19T11:24:47;101391.25;;;23.53;64.62
59789;BME280;47353;51.614;5.530;2022-08-19T11:27:12;101400.63;;;23.33;65.24
59789;BME280;47353;51.614;5.530;2022-08-19T11:29:39;101394.19;;;23.24;65.65
59789;BME280;47353;51.614;5.530;2022-08-19T11:32:07;101401.97;;;23.47;64.16
59789;BME280;47353;51.614;5.530;2022-08-19T11:34:35;101391.38;;;23.80;63.66
59789;BME280;47353;51.614;5.530;2022-08-19T11:37:01;101386.44;;;24.37;63.33
59789;BME280;47353;51.614;5.530;2022-08-19T11:39:29;101387.22;;;24.62;60.41
59789;BME280;47353;51.614;5.530;2022-08-19T11:41:57;101383.50;;;24.86;59.84
59789;BME280;47353;51.614;5.530;2022-08-19T11:44:23;101378.97;;;25.24;59.85
59789;BME280;47353;51.614;5.530;2022-08-19T11:46:49;101374.66;;;25.15;57.93
59789;BME280;47353;51.614;5.530;2022-08-19T11:49:16;101377.03;;;25.87;58.07
59789;BME280;47353;51.614;5.530;2022-08-19T11:51:43;101377.00;;;26.87;53.91
59789;BME280;47353;51.614;5.530;2022-08-19T11:54:09;101383.19;;;27.73;50.79
59789;BME280;47353;51.614;5.530;2022-08-19T11:56:37;101379.88;;;28.42;48.56
59789;BME280;47353;51.614;5.530;2022-08-19T11:59:02;101380.72;;;29.71;46.05
59789;BME280;47353;51.614;5.530;2022-08-19T12:01:28;101383.09;;;30.09;44.53
59789;BME280;47353;51.614;5.530;2022-08-19T12:03:55;101377.25;;;31.21;41.46
59789;BME280;47353;51.614;5.530;2022-08-19T12:06:27;101380.28;;;32.12;40.64
59789;BME280;47353;51.614;5.530;2022-08-19T12:08:54;101380.84;;;33.22;38.17
59789;BME280;47353;51.614;5.530;2022-08-19T12:11:20;101382.06;;;33.21;36.11
59789;BME280;47353;51.614;5.530;2022-08-19T12:13:45;101390.03;;;32.68;36.94
59789;BME280;47353;51.614;5.530;2022-08-19T12:16:27;101390.47;;;31.82;38.42
59789;BME280;47353;51.614;5.530;2022-08-19T12:18:54;101396.56;;;30.12;41.07
59789;BME280;47353;51.614;5.530;2022-08-19T12:21:22;101382.09;;;29.11;43.13
59789;BME280;47353;51.614;5.530;2022-08-19T12:23:49;101379.97;;;28.23;45.41
59789;BME280;47353;51.614;5.530;2022-08-19T12:26:16;101376.19;;;28.15;46.20
59789;BME280;47353;51.614;5.530;2022-08-19T12:28:42;101376.47;;;27.61;47.66
59789;BME280;47353;51.614;5.530;2022-08-19T12:31:08;101371.09;;;27.34;48.28
59789;BME280;47353;51.614;5.530;2022-08-19T12:33:34;101370.78;;;27.39;49.04
59789;BME280;47353;51.614;5.530;2022-08-19T12:36:02;101361.66;;;27.30;49.13
59789;BME280;47353;51.614;5.530;2022-08-19T12:38:29;101366.34;;;27.64;49.12
59789;BME280;47353;51.614;5.530;2022-08-19T12:40:54;101360.16;;;27.17;49.78
59789;BME280;47353;51.614;5.530;2022-08-19T12:43:19;101366.53;;;27.10;50.07
59789;BME280;47353;51.614;5.530;2022-08-19T12:45:45;101361.22;;;27.50;50.36
59789;BME280;47353;51.614;5.530;2022-08-19T12:48:12;101353.41;;;27.89;48.57
59789;BME280;47353;51.614;5.530;2022-08-19T12:50:42;101362.13;;;28.26;48.62